Time;durP1;ratioP1;P1;durP2;ratioP2;P2;SDS_P1;SDS_P2;PMS_P1;PMS_P2;Temp;Humidity;BMP_temperature;BMP_pressure;BME280_temperature;BME280_humidity;BME280_pressure;Samples;Min_cycle;Max_cycle;Signal;HPM_P1;HPM_P2
2021/04/26 00:01:31;;;;;;;1.27;0.70;;;8.90;57.10;;;;;;4965598;28;20522;-78
2021/04/26 00:03:58;;;;;;;1.10;0.60;;;8.90;57.10;;;;;;4964189;28;20380;-77
2021/04/26 00:06:24;;;;;;;3.05;0.75;;;8.90;57.10;;;;;;4967101;28;20027;-78
2021/04/26 00:08:49;;;;;;;2.60;0.70;;;8.80;57.10;;;;;;4969192;28;20042;-77
2021/04/26 00:11:15;;;;;;;2.50;0.70;;;8.90;57.20;;;;;;4969660;28;20110;-78
2021/04/26 00:13:40;;;;;;;1.80;0.75;;;8.80;57.10;;;;;;4959358;28;20130;-76
2021/04/26 00:16:06;;;;;;;1.10;0.60;;;8.80;57.10;;;;;;4969083;28;20046;-78
2021/04/26 00:18:32;;;;;;;3.45;0.88;;;8.80;57.80;;;;;;4986155;28;20459;-77
2021/04/26 00:20:58;;;;;;;1.63;0.80;;;8.70;57.20;;;;;;4966657;28;20050;-77
2021/04/26 00:23:23;;;;;;;3.97;0.80;;;8.80;57.20;;;;;;4957686;28;20023;-77
2021/04/26 00:25:49;;;;;;;1.30;0.80;;;8.70;57.00;;;;;;4950645;28;20408;-78
2021/04/26 00:28:15;;;;;;;3.50;0.90;;;8.70;57.10;;;;;;4953351;28;20102;-78
2021/04/26 00:30:40;;;;;;;0.68;0.60;;;8.70;57.00;;;;;;4954997;28;20100;-78
2021/04/26 00:33:06;;;;;;;3.03;0.73;;;8.70;57.00;;;;;;4965070;28;20067;-78
2021/04/26 00:35:32;;;;;;;1.55;0.70;;;8.60;57.00;;;;;;4956501;28;20091;-78
2021/04/26 00:37:57;;;;;;;3.22;1.42;;;8.60;57.00;;;;;;4952107;28;20303;-78
2021/04/26 00:40:23;;;;;;;1.15;0.60;;;8.50;57.00;;;;;;4954639;28;20034;-78
2021/04/26 00:42:51;;;;;;;3.10;0.80;;;8.50;57.20;;;;;;4954121;28;20391;-78
2021/04/26 00:45:20;;;;;;;2.15;0.80;;;8.60;57.20;;;;;;4954685;28;20457;-77
2021/04/26 00:47:47;;;;;;;1.05;0.73;;;8.50;57.10;;;;;;4953601;28;20027;-77
2021/04/26 00:50:19;;;;;;;2.75;0.75;;;8.60;57.20;;;;;;4958262;28;20031;-77
2021/04/26 00:52:47;;;;;;;5.63;1.15;;;8.60;57.10;;;;;;4956066;28;20512;-77
2021/04/26 00:55:14;;;;;;;1.45;0.80;;;8.60;57.20;;;;;;4955640;28;20019;-78
2021/04/26 00:57:40;;;;;;;1.52;0.70;;;8.60;57.20;;;;;;4953486;28;20047;-79
2021/04/26 01:00:08;;;;;;;4.30;0.80;;;8.60;57.20;;;;;;4955865;28;20057;-77
2021/04/26 01:02:34;;;;;;;3.08;1.00;;;8.50;57.20;;;;;;4956816;28;20027;-77
2021/04/26 01:05:00;;;;;;;1.20;0.60;;;8.50;57.30;;;;;;4957067;28;20235;-78
2021/04/26 01:07:28;;;;;;;1.80;0.85;;;8.50;57.30;;;;;;4955259;28;20337;-77
2021/04/26 01:09:54;;;;;;;4.63;1.13;;;8.50;57.30;;;;;;4955997;28;20027;-77
2021/04/26 01:12:41;;;;;;;1.80;0.77;;;8.40;57.40;;;;;;4944699;28;20047;-78
2021/04/26 01:15:16;;;;;;;1.25;0.80;;;8.30;57.50;;;;;;4957365;28;20404;-79
2021/04/26 01:18:02;;;;;;;1.70;0.90;;;8.20;57.70;;;;;;4953802;28;20019;-77
2021/04/26 01:20:55;;;;;;;0.95;0.77;;;8.20;57.80;;;;;;4959139;28;20047;-77
2021/04/26 01:23:39;;;;;;;1.25;0.60;;;8.20;57.80;;;;;;4958273;28;20030;-77
2021/04/26 01:26:05;;;;;;;1.15;0.75;;;8.20;57.70;;;;;;4954742;28;20031;-76
2021/04/26 01:28:50;;;;;;;0.60;0.60;;;8.20;57.70;;;;;;4958751;28;20478;-77
2021/04/26 01:31:28;;;;;;;3.92;1.00;;;8.20;57.60;;;;;;4962860;28;20066;-78
2021/04/26 01:33:58;;;;;;;2.70;1.00;;;8.20;57.70;;;;;;4957856;28;20036;-78
2021/04/26 01:36:27;;;;;;;2.55;0.82;;;8.20;57.70;;;;;;4960719;28;20157;-78
2021/04/26 01:38:56;;;;;;;1.45;0.73;;;8.20;57.70;;;;;;4961134;28;20027;-78
2021/04/26 01:41:27;;;;;;;2.15;0.63;;;8.20;57.60;;;;;;4960507;28;20035;-78
2021/04/26 01:43:55;;;;;;;2.50;0.80;;;8.20;57.60;;;;;;4960148;28;20027;-80
2021/04/26 01:46:23;;;;;;;1.27;0.80;;;8.20;57.70;;;;;;4959986;28;20126;-77
2021/04/26 01:48:51;;;;;;;2.45;1.15;;;8.20;57.80;;;;;;4961457;28;20027;-77
2021/04/26 01:51:18;;;;;;;1.50;0.90;;;8.20;57.80;;;;;;4960793;28;20034;-76
2021/04/26 01:53:45;;;;;;;2.03;0.77;;;8.20;57.90;;;;;;4960465;28;20034;-78
2021/04/26 01:56:12;;;;;;;2.22;0.80;;;8.20;57.90;;;;;;4976330;28;20031;-78
2021/04/26 01:58:40;;;;;;;2.30;0.95;;;8.20;57.90;;;;;;4960563;28;20023;-78
2021/04/26 02:01:06;;;;;;;1.83;1.10;;;8.20;57.90;;;;;;4962775;28;20121;-77
2021/04/26 02:03:33;;;;;;;5.90;1.02;;;8.10;57.80;;;;;;4962804;28;20026;-77
2021/04/26 02:06:00;;;;;;;1.75;0.77;;;8.00;57.90;;;;;;4975676;28;20062;-77
2021/04/26 02:08:26;;;;;;;2.80;1.25;;;8.00;58.10;;;;;;4960163;28;20032;-76
2021/04/26 02:10:52;;;;;;;4.22;0.90;;;8.00;58.10;;;;;;4961180;28;20027;-77
2021/04/26 02:13:22;;;;;;;1.10;0.80;;;8.00;58.20;;;;;;4948390;28;20058;-78
2021/04/26 02:15:51;;;;;;;1.15;0.77;;;8.00;58.20;;;;;;4968015;28;20019;-77
2021/04/26 02:18:17;;;;;;;1.45;0.88;;;8.00;58.10;;;;;;4967600;28;20514;-76
2021/04/26 02:20:42;;;;;;;3.05;1.10;;;8.00;58.20;;;;;;4969232;28;20105;-78
2021/04/26 02:23:08;;;;;;;5.15;0.98;;;8.00;58.30;;;;;;4966276;28;20026;-78
2021/04/26 02:25:34;;;;;;;1.35;0.88;;;8.00;58.30;;;;;;4967660;28;20069;-78
2021/04/26 02:28:00;;;;;;;2.25;1.95;;;8.00;58.30;;;;;;4984459;28;20027;-78
2021/04/26 02:30:27;;;;;;;1.85;0.80;;;8.00;58.40;;;;;;4971815;28;20118;-78
2021/04/26 02:33:05;;;;;;;5.30;1.15;;;8.00;58.40;;;;;;4968187;28;20034;-78
2021/04/26 02:35:38;;;;;;;3.33;0.70;;;8.00;58.60;;;;;;4971692;28;20023;-78
2021/04/26 02:38:07;;;;;;;1.80;0.77;;;7.90;58.50;;;;;;4970701;28;20031;-76
2021/04/26 02:40:43;;;;;;;1.38;0.80;;;8.00;58.50;;;;;;4970497;28;20022;-76
2021/04/26 02:43:09;;;;;;;2.05;0.77;;;8.00;58.50;;;;;;4953411;28;20031;-78
2021/04/26 02:45:41;;;;;;;0.77;0.60;;;7.90;58.40;;;;;;4955621;28;20027;-76
2021/04/26 02:48:08;;;;;;;1.60;1.00;;;7.90;58.40;;;;;;4969588;28;20023;-77
2021/04/26 02:50:34;;;;;;;0.60;0.60;;;7.90;58.40;;;;;;4959786;28;20027;-77
2021/04/26 02:53:00;;;;;;;2.38;0.85;;;7.90;58.60;;;;;;4954595;28;20122;-78
2021/04/26 02:55:28;;;;;;;0.88;0.82;;;7.90;58.70;;;;;;4955104;28;20114;-77
2021/04/26 02:57:56;;;;;;;4.00;1.02;;;7.90;58.70;;;;;;4953802;28;20042;-77
2021/04/26 03:00:22;;;;;;;1.67;0.73;;;7.90;58.80;;;;;;4956289;28;20050;-78
2021/04/26 03:02:50;;;;;;;2.50;0.90;;;7.90;58.80;;;;;;4955069;28;20372;-78
2021/04/26 03:05:17;;;;;;;2.03;0.95;;;7.90;59.00;;;;;;4955983;28;20074;-77
2021/04/26 03:07:44;;;;;;;1.20;0.75;;;7.80;59.00;;;;;;4956553;28;20031;-77
2021/04/26 03:10:14;;;;;;;1.58;0.82;;;7.80;59.00;;;;;;4955413;28;20498;-77
2021/04/26 03:12:42;;;;;;;1.23;0.70;;;7.90;59.10;;;;;;4946454;28;20102;-78
2021/04/26 03:15:15;;;;;;;0.82;0.75;;;7.80;59.00;;;;;;4957346;28;20464;-78
2021/04/26 03:17:41;;;;;;;1.75;0.93;;;7.80;59.10;;;;;;4952786;28;20098;-78
2021/04/26 03:20:12;;;;;;;3.38;0.77;;;7.80;59.10;;;;;;4957696;28;20114;-76
2021/04/26 03:22:39;;;;;;;1.00;0.80;;;7.80;59.20;;;;;;4956194;28;20051;-78
2021/04/26 03:25:07;;;;;;;0.90;0.70;;;7.80;59.30;;;;;;4954777;28;20424;-77
2021/04/26 03:27:33;;;;;;;0.55;0.50;;;7.80;59.20;;;;;;4958848;28;20031;-77
2021/04/26 03:30:00;;;;;;;2.80;0.93;;;7.80;59.30;;;;;;4959662;28;20118;-77
2021/04/26 03:32:27;;;;;;;3.08;0.90;;;7.80;59.30;;;;;;4959120;28;20031;-78
2021/04/26 03:34:54;;;;;;;1.20;0.90;;;7.70;59.30;;;;;;4958713;28;20028;-78
2021/04/26 03:37:20;;;;;;;1.00;0.52;;;7.70;59.40;;;;;;4958717;28;20028;-78
2021/04/26 03:39:46;;;;;;;1.63;0.90;;;7.70;59.50;;;;;;4959291;28;20028;-78
2021/04/26 03:42:16;;;;;;;0.82;0.82;;;7.70;59.60;;;;;;4960194;28;20035;-77
2021/04/26 03:44:44;;;;;;;0.60;0.60;;;7.70;59.70;;;;;;4960632;28;20094;-78
2021/04/26 03:47:10;;;;;;;2.15;1.05;;;7.60;59.70;;;;;;4957830;28;20046;-77
2021/04/26 03:49:36;;;;;;;2.78;0.90;;;7.60;59.70;;;;;;4959643;28;20057;-76
2021/04/26 03:52:03;;;;;;;2.33;1.00;;;7.60;59.70;;;;;;4961725;28;20037;-78
2021/04/26 03:54:28;;;;;;;1.95;0.80;;;7.60;59.70;;;;;;4961621;28;20050;-77
2021/04/26 03:56:54;;;;;;;1.48;0.88;;;7.60;59.80;;;;;;4962255;28;20380;-78
2021/04/26 03:59:20;;;;;;;1.90;0.80;;;7.60;59.80;;;;;;4964767;28;20488;-78
2021/04/26 04:01:45;;;;;;;1.33;1.08;;;7.60;60.00;;;;;;4961295;28;20085;-78
2021/04/26 04:04:11;;;;;;;3.13;1.10;;;7.60;60.00;;;;;;4961382;28;20019;-78
2021/04/26 04:06:37;;;;;;;3.40;1.02;;;7.60;60.10;;;;;;4963816;28;20019;-78
2021/04/26 04:09:05;;;;;;;4.90;0.98;;;7.50;60.10;;;;;;4962181;28;20117;-78
2021/04/26 04:11:30;;;;;;;2.83;0.90;;;7.50;60.20;;;;;;4960806;28;21029;-78
2021/04/26 04:13:56;;;;;;;1.05;0.68;;;7.50;60.30;;;;;;4953437;28;20059;-77
2021/04/26 04:16:22;;;;;;;6.88;2.05;;;7.50;60.30;;;;;;4962869;28;20486;-78
2021/04/26 04:18:48;;;;;;;1.63;1.30;;;7.50;60.40;;;;;;4963514;28;20464;-78
2021/04/26 04:21:13;;;;;;;3.40;0.98;;;7.50;60.40;;;;;;4964445;28;20843;-76
2021/04/26 04:23:39;;;;;;;2.90;0.98;;;7.50;60.40;;;;;;4965605;28;20097;-77
2021/04/26 04:26:05;;;;;;;2.38;0.90;;;7.50;60.50;;;;;;4963445;28;20030;-77
2021/04/26 04:28:31;;;;;;;2.15;0.90;;;7.50;60.50;;;;;;4965304;28;20499;-78
2021/04/26 04:30:58;;;;;;;2.15;1.17;;;7.50;60.60;;;;;;4965830;28;20067;-78
2021/04/26 04:33:24;;;;;;;2.15;0.80;;;7.50;60.80;;;;;;4965232;28;20067;-76
2021/04/26 04:35:50;;;;;;;0.88;0.80;;;7.50;60.90;;;;;;4961517;28;20026;-77
2021/04/26 04:38:15;;;;;;;1.52;0.95;;;7.50;60.90;;;;;;4963223;28;20197;-77
2021/04/26 04:40:41;;;;;;;1.40;0.93;;;7.50;60.90;;;;;;4965845;28;20121;-78
2021/04/26 04:43:07;;;;;;;1.13;0.80;;;7.50;60.80;;;;;;4967630;28;20467;-78
2021/04/26 04:45:33;;;;;;;1.95;0.80;;;7.50;60.90;;;;;;4968157;28;20498;-77
2021/04/26 04:47:58;;;;;;;1.15;0.77;;;7.50;60.90;;;;;;4964722;28;20024;-77
2021/04/26 04:50:24;;;;;;;2.38;0.90;;;7.50;61.00;;;;;;4966792;28;20070;-77
2021/04/26 04:52:49;;;;;;;4.05;1.00;;;7.40;61.00;;;;;;4963820;28;20035;-78
2021/04/26 04:55:15;;;;;;;2.90;1.02;;;7.40;61.10;;;;;;4966897;28;20097;-78
2021/04/26 04:57:41;;;;;;;1.77;0.70;;;7.50;61.20;;;;;;4968060;28;20026;-78
2021/04/26 05:00:08;;;;;;;1.40;0.77;;;7.40;61.20;;;;;;4965812;28;20051;-78
2021/04/26 05:02:34;;;;;;;1.05;0.70;;;7.40;61.20;;;;;;4969819;28;20030;-77
2021/04/26 05:04:59;;;;;;;1.73;0.70;;;7.40;61.20;;;;;;4968265;28;20043;-77
2021/04/26 05:07:25;;;;;;;1.42;0.80;;;7.50;61.40;;;;;;4968331;28;20383;-78
2021/04/26 05:09:51;;;;;;;7.00;1.73;;;7.50;61.30;;;;;;4970363;28;20095;-79
2021/04/26 05:12:17;;;;;;;1.27;0.85;;;7.50;61.20;;;;;;4966432;28;20022;-76
2021/04/26 05:14:45;;;;;;;4.03;1.08;;;7.50;61.30;;;;;;4966480;28;20099;-76
2021/04/26 05:17:11;;;;;;;0.85;0.70;;;7.50;61.30;;;;;;4961601;28;20114;-78
2021/04/26 05:19:37;;;;;;;1.23;0.68;;;7.50;61.30;;;;;;4969616;28;20582;-76
2021/04/26 05:22:03;;;;;;;0.95;0.70;;;7.50;61.30;;;;;;4968170;28;20106;-77
2021/04/26 05:24:31;;;;;;;4.22;1.17;;;7.50;61.20;;;;;;4968974;28;20108;-77
2021/04/26 05:26:56;;;;;;;2.33;1.00;;;7.60;61.20;;;;;;4960583;28;20019;-77
2021/04/26 05:29:22;;;;;;;4.13;1.15;;;7.60;61.20;;;;;;4952384;28;20118;-79
2021/04/26 05:31:48;;;;;;;5.75;1.20;;;7.60;61.20;;;;;;4949312;28;20517;-79
2021/04/26 05:34:13;;;;;;;1.70;0.73;;;7.60;61.20;;;;;;4958942;28;20027;-78
2021/04/26 05:36:39;;;;;;;2.55;0.80;;;7.60;61.80;;;;;;4955988;28;20038;-79
2021/04/26 05:39:05;;;;;;;1.42;0.70;;;7.60;61.30;;;;;;4952732;28;20023;-79
2021/04/26 05:41:31;;;;;;;1.30;0.70;;;7.60;61.30;;;;;;4952307;28;20043;-79
2021/04/26 05:43:57;;;;;;;2.53;1.05;;;7.70;61.30;;;;;;4966920;28;20016;-79
2021/04/26 05:46:22;;;;;;;1.00;0.93;;;7.70;61.30;;;;;;4955137;28;20023;-79
2021/04/26 05:48:49;;;;;;;2.55;1.00;;;7.70;61.20;;;;;;4956185;28;20027;-78
2021/04/26 05:51:16;;;;;;;4.15;1.05;;;7.80;61.20;;;;;;4953597;28;20066;-78
2021/04/26 05:53:41;;;;;;;1.70;0.90;;;7.80;61.30;;;;;;4957902;28;20031;-78
2021/04/26 05:56:08;;;;;;;2.50;1.42;;;7.80;61.20;;;;;;4958361;28;20103;-79
2021/04/26 05:58:34;;;;;;;1.38;1.13;;;7.80;61.20;;;;;;4958985;28;20019;-78
2021/04/26 06:01:00;;;;;;;6.55;1.48;;;7.80;61.20;;;;;;4959090;28;20059;-79
2021/04/26 06:03:26;;;;;;;2.70;0.80;;;7.80;61.20;;;;;;4958313;28;20460;-79
2021/04/26 06:05:51;;;;;;;1.65;0.75;;;7.80;61.20;;;;;;4959693;28;20023;-79
2021/04/26 06:08:18;;;;;;;2.47;1.35;;;7.80;61.20;;;;;;4955933;28;20078;-79
2021/04/26 06:10:43;;;;;;;1.02;0.70;;;7.90;61.20;;;;;;4955661;28;20484;-78
2021/04/26 06:13:09;;;;;;;2.22;0.55;;;7.90;61.20;;;;;;4955020;29;20058;-79
2021/04/26 06:15:35;;;;;;;2.55;0.80;;;7.90;61.10;;;;;;4956464;29;20102;-79
2021/04/26 06:18:19;;;;;;;1.92;0.93;;;8.00;61.20;;;;;;4956329;28;20055;-78
2021/04/26 06:20:47;;;;;;;0.60;0.60;;;8.10;61.30;;;;;;4955436;28;20439;-79
2021/04/26 06:23:13;;;;;;;1.85;0.82;;;8.10;61.30;;;;;;4955997;29;20158;-79
2021/04/26 06:25:40;;;;;;;2.28;1.13;;;8.10;61.10;;;;;;4956723;29;20023;-78
2021/04/26 06:28:07;;;;;;;0.50;0.50;;;8.10;61.10;;;;;;4953781;28;20027;-78
2021/04/26 06:30:33;;;;;;;3.55;1.13;;;8.20;61.10;;;;;;4954973;28;20030;-79
2021/04/26 06:32:59;;;;;;;1.00;0.80;;;8.20;61.00;;;;;;4955514;28;20031;-85
2021/04/26 06:35:25;;;;;;;2.85;0.82;;;8.20;61.10;;;;;;4954070;28;20123;-81
2021/04/26 06:37:50;;;;;;;0.88;0.77;;;8.20;61.00;;;;;;4954437;28;20393;-81
2021/04/26 06:40:16;;;;;;;1.95;0.88;;;8.30;61.00;;;;;;4953761;28;20411;-82
2021/04/26 06:42:42;;;;;;;1.15;0.70;;;8.30;60.80;;;;;;4952782;29;20059;-78
2021/04/26 06:45:09;;;;;;;2.70;0.90;;;8.40;60.90;;;;;;4953853;28;20024;-80
2021/04/26 06:47:35;;;;;;;1.05;0.95;;;8.40;60.70;;;;;;4954320;28;20015;-80
2021/04/26 06:50:02;;;;;;;2.45;0.88;;;8.50;60.60;;;;;;4952744;29;20102;-80
2021/04/26 06:52:28;;;;;;;1.50;0.80;;;8.50;60.50;;;;;;4952039;28;20359;-78
2021/04/26 06:54:53;;;;;;;1.08;0.80;;;8.50;60.50;;;;;;4953648;28;20499;-80
2021/04/26 06:57:19;;;;;;;2.78;1.00;;;8.60;60.50;;;;;;4953225;28;20024;-82
2021/04/26 06:59:45;;;;;;;1.27;0.82;;;8.60;60.30;;;;;;4951046;28;20012;-78
2021/04/26 07:02:11;;;;;;;2.67;0.80;;;8.70;60.10;;;;;;4952924;29;20041;-80
2021/04/26 07:04:37;;;;;;;2.22;0.80;;;8.70;60.00;;;;;;4953456;28;20063;-80
2021/04/26 07:07:03;;;;;;;1.42;0.70;;;8.70;60.00;;;;;;4968084;28;20027;-79
2021/04/26 07:09:29;;;;;;;1.58;0.70;;;8.80;60.00;;;;;;4967893;28;20094;-80
2021/04/26 07:11:56;;;;;;;1.08;0.65;;;8.80;60.00;;;;;;4954175;29;20042;-74
2021/04/26 07:14:22;;;;;;;7.03;0.80;;;8.90;59.90;;;;;;4954941;28;20031;-75
2021/04/26 07:16:48;;;;;;;2.55;0.63;;;9.00;59.80;;;;;;4955135;28;20086;-76
2021/04/26 07:19:14;;;;;;;2.28;0.65;;;9.00;59.60;;;;;;4954923;29;20026;-76
2021/04/26 07:21:40;;;;;;;2.92;1.17;;;9.00;59.40;;;;;;4955429;28;20436;-76
2021/04/26 07:24:06;;;;;;;3.08;1.17;;;9.00;59.40;;;;;;4955325;28;20032;-75
2021/04/26 07:26:32;;;;;;;2.22;0.80;;;9.10;59.30;;;;;;4954704;28;20106;-74
2021/04/26 07:28:57;;;;;;;2.13;0.70;;;9.10;59.30;;;;;;4955373;28;20234;-75
2021/04/26 07:31:23;;;;;;;1.75;0.70;;;9.10;59.20;;;;;;4954497;29;20059;-75
2021/04/26 07:33:49;;;;;;;1.38;0.90;;;9.20;59.10;;;;;;4954836;28;20034;-75
2021/04/26 07:36:15;;;;;;;1.98;0.98;;;9.20;58.80;;;;;;4953122;28;20023;-75
2021/04/26 07:38:41;;;;;;;4.97;0.95;;;9.20;58.40;;;;;;4955014;28;20042;-75
2021/04/26 07:41:06;;;;;;;3.03;1.05;;;9.20;58.30;;;;;;4985847;28;20035;-76
2021/04/26 07:43:32;;;;;;;1.73;0.70;;;9.30;58.30;;;;;;4954099;29;20062;-76
2021/04/26 07:45:58;;;;;;;1.63;0.70;;;9.30;58.30;;;;;;4954607;28;20469;-76
2021/04/26 07:48:24;;;;;;;1.65;0.55;;;9.40;58.30;;;;;;4953986;28;20361;-75
2021/04/26 07:50:49;;;;;;;1.58;0.70;;;9.40;58.20;;;;;;4954563;29;20114;-75
2021/04/26 07:53:16;;;;;;;3.88;1.20;;;9.50;58.00;;;;;;4954131;29;20029;-75
2021/04/26 07:55:41;;;;;;;1.48;1.15;;;9.60;57.80;;;;;;4954680;28;20028;-74
2021/04/26 07:58:08;;;;;;;2.60;0.70;;;9.60;57.60;;;;;;4954435;28;20448;-76
2021/04/26 08:00:34;;;;;;;2.15;0.80;;;9.60;57.40;;;;;;4953856;29;20088;-76
2021/04/26 08:03:00;;;;;;;0.95;0.73;;;9.70;57.20;;;;;;4954666;29;20042;-76
2021/04/26 08:05:27;;;;;;;1.67;0.75;;;9.70;57.20;;;;;;4968826;28;20023;-76
2021/04/26 08:07:54;;;;;;;1.25;0.88;;;9.80;57.00;;;;;;4953358;29;20372;-76
2021/04/26 08:10:19;;;;;;;1.90;0.70;;;9.80;56.80;;;;;;4952786;28;20038;-76
2021/04/26 08:12:45;;;;;;;0.90;0.60;;;9.80;56.70;;;;;;4953196;28;20039;-75
2021/04/26 08:15:11;;;;;;;2.47;0.90;;;9.90;57.00;;;;;;4954671;28;20464;-76
2021/04/26 08:17:38;;;;;;;2.58;1.15;;;9.90;56.30;;;;;;4954594;28;20027;-77
2021/04/26 08:20:08;;;;;;;0.85;0.85;;;10.00;56.20;;;;;;4954573;28;20058;-75
2021/04/26 08:22:34;;;;;;;1.97;0.90;;;10.00;56.00;;;;;;4954146;28;20033;-76
2021/04/26 08:25:00;;;;;;;6.20;0.82;;;10.10;56.00;;;;;;4954259;29;20113;-76
2021/04/26 08:27:26;;;;;;;1.05;0.88;;;10.10;55.90;;;;;;4953370;28;20437;-76
2021/04/26 08:29:51;;;;;;;3.88;1.02;;;10.20;55.70;;;;;;4954327;28;20046;-76
2021/04/26 08:32:17;;;;;;;1.95;0.80;;;10.20;55.60;;;;;;4953312;28;20063;-76
2021/04/26 08:34:43;;;;;;;1.20;0.90;;;10.30;55.60;;;;;;4953862;28;20038;-77
2021/04/26 08:37:09;;;;;;;1.63;0.80;;;10.30;55.40;;;;;;4954167;29;20060;-75
2021/04/26 08:39:34;;;;;;;2.03;0.90;;;10.40;55.10;;;;;;4953113;28;20042;-75
2021/04/26 08:42:00;;;;;;;1.10;0.80;;;10.40;54.80;;;;;;4953986;29;20043;-75
2021/04/26 08:44:25;;;;;;;2.05;0.90;;;10.40;54.80;;;;;;4952007;28;20052;-75
2021/04/26 08:46:51;;;;;;;3.20;1.27;;;10.40;54.80;;;;;;4954133;29;20090;-75
2021/04/26 08:49:19;;;;;;;0.90;0.90;;;10.50;54.70;;;;;;4953508;28;20358;-76
2021/04/26 08:51:45;;;;;;;2.72;0.93;;;10.50;54.10;;;;;;4968168;28;20122;-76
2021/04/26 08:54:16;;;;;;;4.03;0.90;;;10.60;54.00;;;;;;4952566;29;20115;-75
2021/04/26 08:56:42;;;;;;;1.92;1.00;;;10.60;53.90;;;;;;4954076;28;20027;-75
2021/04/26 08:59:08;;;;;;;1.38;0.82;;;10.60;53.40;;;;;;4953915;28;20051;-75
2021/04/26 09:01:34;;;;;;;0.82;0.70;;;10.70;53.30;;;;;;4952811;29;20090;-76
2021/04/26 09:04:11;;;;;;;2.55;0.88;;;10.70;53.20;;;;;;4953790;28;20035;-75
2021/04/26 09:06:52;;;;;;;1.63;0.70;;;10.80;52.70;;;;;;4953149;28;20102;-75
2021/04/26 09:09:49;;;;;;;1.70;0.88;;;10.80;52.10;;;;;;4951755;29;20027;-76
2021/04/26 09:12:30;;;;;;;1.48;0.70;;;10.90;52.30;;;;;;4953596;28;20460;-75
2021/04/26 09:14:56;;;;;;;2.83;0.90;;;10.90;52.20;;;;;;4953537;28;20038;-75
2021/04/26 09:17:38;;;;;;;3.63;1.35;;;11.00;52.00;;;;;;4952905;29;20027;-76
2021/04/26 09:20:18;;;;;;;;;;;11.00;51.50;;;;;;4954178;28;20030;-76
2021/04/26 09:22:58;;;;;;;2.10;0.80;;;11.00;51.50;;;;;;4953609;28;19942;-76
2021/04/26 09:25:31;;;;;;;1.33;0.88;;;11.10;51.30;;;;;;4956954;28;20023;-76
2021/04/26 09:28:05;;;;;;;2.38;0.80;;;11.20;51.40;;;;;;4957410;28;20023;-75
2021/04/26 09:30:46;;;;;;;0.77;0.60;;;11.20;51.30;;;;;;4956640;28;20337;-74
2021/04/26 09:33:39;;;;;;;2.33;1.45;;;11.20;50.80;;;;;;4957400;29;20028;-75
2021/04/26 09:36:16;;;;;;;2.05;0.70;;;11.20;50.30;;;;;;4957386;28;20024;-76
2021/04/26 09:38:53;;;;;;;3.30;1.15;;;11.20;50.30;;;;;;4955355;29;20023;-75
2021/04/26 09:41:23;;;;;;;2.65;0.90;;;11.30;50.20;;;;;;4956277;28;20090;-75
2021/04/26 09:44:02;;;;;;;1.38;0.90;;;11.30;50.20;;;;;;4955885;29;20038;-76
2021/04/26 09:46:47;;;;;;;1.02;0.90;;;11.40;49.90;;;;;;4956373;28;20020;-75
2021/04/26 09:49:25;;;;;;;3.50;0.80;;;11.50;49.80;;;;;;4957161;28;20028;-75
2021/04/26 09:51:56;;;;;;;2.47;1.05;;;11.50;49.60;;;;;;4956933;28;20125;-76
2021/04/26 09:54:40;;;;;;;3.15;1.35;;;11.50;49.60;;;;;;4955139;29;20432;-76
2021/04/26 09:57:06;;;;;;;2.03;1.17;;;11.60;49.50;;;;;;4956701;28;20027;-75
2021/04/26 09:59:32;;;;;;;1.98;1.33;;;11.70;49.60;;;;;;4955993;28;20055;-76
2021/04/26 10:01:59;;;;;;;2.20;1.10;;;11.70;49.40;;;;;;4956849;28;20125;-76
2021/04/26 10:04:26;;;;;;;1.80;1.00;;;11.80;49.50;;;;;;4956167;28;20455;-76
2021/04/26 10:06:52;;;;;;;4.82;1.27;;;11.80;49.30;;;;;;4956821;28;20029;-76
2021/04/26 10:09:18;;;;;;;3.63;1.10;;;11.90;49.10;;;;;;4956629;28;20106;-76
2021/04/26 10:11:44;;;;;;;1.10;0.80;;;11.90;49.10;;;;;;4954215;28;20142;-74
2021/04/26 10:14:17;;;;;;;3.63;0.93;;;12.00;49.10;;;;;;4956526;28;20019;-75
2021/04/26 10:16:53;;;;;;;4.28;1.67;;;12.00;49.00;;;;;;4955789;28;20452;-76
2021/04/26 10:19:34;;;;;;;3.60;1.00;;;12.10;49.00;;;;;;4956238;28;20483;-76
2021/04/26 10:22:01;;;;;;;2.10;0.95;;;12.20;48.70;;;;;;4956411;28;20023;-76
2021/04/26 10:24:29;;;;;;;3.75;1.05;;;12.10;48.60;;;;;;4955681;28;20028;-75
2021/04/26 10:27:01;;;;;;;1.35;0.75;;;12.10;48.60;;;;;;4956648;28;20030;-75
2021/04/26 10:29:29;;;;;;;2.05;0.90;;;12.20;48.60;;;;;;4955642;28;20103;-76
2021/04/26 10:32:01;;;;;;;1.65;0.80;;;12.30;48.30;;;;;;4956135;28;20035;-76
2021/04/26 10:34:28;;;;;;;2.00;0.80;;;12.30;48.20;;;;;;4955561;28;20110;-77
2021/04/26 10:36:56;;;;;;;2.08;0.90;;;12.40;48.30;;;;;;4956101;29;20035;-76
2021/04/26 10:39:23;;;;;;;2.60;1.13;;;12.40;48.70;;;;;;4956164;28;20031;-76
2021/04/26 10:41:57;;;;;;;1.30;0.80;;;12.50;47.90;;;;;;4956189;28;20077;-75
2021/04/26 10:44:44;;;;;;;2.30;0.70;;;12.60;48.00;;;;;;4955902;28;20165;-76
2021/04/26 10:47:25;;;;;;;1.23;0.85;;;12.60;47.80;;;;;;4955101;28;20059;-74
2021/04/26 10:50:00;;;;;;;;;;;12.70;48.00;;;;;;4956711;28;20031;-75
2021/04/26 10:52:33;;;;;;;1.38;0.80;;;12.60;47.60;;;;;;4955248;28;20034;-76
2021/04/26 10:55:11;;;;;;;3.40;1.17;;;12.70;47.30;;;;;;4956140;28;20026;-76
2021/04/26 10:57:46;;;;;;;2.00;1.00;;;12.80;47.20;;;;;;4955430;28;20023;-76
2021/04/26 11:00:21;;;;;;;2.55;1.20;;;12.90;47.20;;;;;;4955488;28;20062;-75
2021/04/26 11:02:51;;;;;;;2.25;1.08;;;13.00;46.90;;;;;;4955156;28;20031;-76
2021/04/26 11:05:23;;;;;;;1.85;0.88;;;13.10;46.90;;;;;;4955869;28;20078;-75
2021/04/26 11:07:55;;;;;;;3.72;1.20;;;13.20;46.80;;;;;;4954986;28;20027;-76
2021/04/26 11:10:34;;;;;;;1.85;0.80;;;13.30;46.50;;;;;;4955564;28;20483;-76
2021/04/26 11:13:21;;;;;;;0.88;0.80;;;13.50;46.30;;;;;;4954178;28;20035;-76
2021/04/26 11:16:15;;;;;;;3.45;1.10;;;13.60;46.10;;;;;;4954873;28;20031;-75
2021/04/26 11:18:42;;;;;;;3.80;0.90;;;13.80;46.50;;;;;;4954696;29;20487;-76
2021/04/26 11:21:09;;;;;;;1.95;0.88;;;13.90;45.60;;;;;;4955145;29;20435;-76
2021/04/26 11:23:44;;;;;;;3.42;1.30;;;14.10;45.50;;;;;;4954795;28;20472;-76
2021/04/26 11:26:18;;;;;;;1.67;0.73;;;14.20;45.10;;;;;;4954063;28;20024;-76
2021/04/26 11:29:02;;;;;;;3.58;1.10;;;14.30;44.80;;;;;;4954660;28;20416;-75
2021/04/26 11:31:42;;;;;;;4.38;1.27;;;14.40;43.90;;;;;;4954583;28;20035;-76
2021/04/26 11:34:10;;;;;;;1.65;1.13;;;14.50;44.00;;;;;;4955186;28;20102;-76
2021/04/26 11:36:40;;;;;;;0.88;0.70;;;14.60;43.90;;;;;;4954686;28;20019;-75
2021/04/26 11:39:08;;;;;;;1.30;0.80;;;14.80;43.70;;;;;;4955083;28;20027;-76
2021/04/26 11:41:41;;;;;;;1.92;0.93;;;14.90;43.20;;;;;;4954578;28;20028;-76
2021/04/26 11:44:07;;;;;;;3.53;1.13;;;15.00;43.40;;;;;;4955005;28;20019;-75
2021/04/26 11:46:34;;;;;;;0.75;0.60;;;15.20;43.60;;;;;;4953504;28;20027;-76
2021/04/26 11:49:19;;;;;;;1.73;1.10;;;15.40;43.60;;;;;;4954688;28;20043;-75
2021/04/26 11:51:47;;;;;;;1.27;1.02;;;15.60;43.60;;;;;;4954340;28;20027;-75
2021/04/26 11:54:22;;;;;;;4.63;1.05;;;15.90;43.50;;;;;;4954814;28;20043;-75
2021/04/26 11:57:19;;;;;;;4.57;1.33;;;16.10;43.30;;;;;;4952940;28;20062;-75
2021/04/26 11:59:56;;;;;;;1.23;0.90;;;16.30;42.90;;;;;;4954296;28;20055;-75
2021/04/26 12:02:24;;;;;;;1.30;0.93;;;16.40;42.20;;;;;;4954578;28;20043;-76
2021/04/26 12:04:50;;;;;;;3.60;1.02;;;16.50;42.20;;;;;;4952785;29;20027;-76
2021/04/26 12:07:15;;;;;;;1.38;0.95;;;16.60;42.40;;;;;;4969392;28;20019;-76
2021/04/26 12:09:44;;;;;;;3.90;0.90;;;16.70;42.10;;;;;;4953654;28;20123;-75
2021/04/26 12:12:10;;;;;;;1.40;0.80;;;16.90;42.00;;;;;;4954508;28;20032;-76
2021/04/26 12:14:43;;;;;;;2.80;0.90;;;16.90;41.50;;;;;;4953986;28;20070;-77
2021/04/26 12:17:22;;;;;;;2.22;0.93;;;17.10;41.60;;;;;;4954587;28;20115;-74
2021/04/26 12:19:48;;;;;;;2.92;0.95;;;17.20;40.90;;;;;;4954103;28;20079;-76
2021/04/26 12:22:15;;;;;;;2.67;1.05;;;17.20;40.60;;;;;;4954366;28;20451;-75
2021/04/26 12:24:43;;;;;;;5.47;1.20;;;17.30;40.80;;;;;;4953335;28;20389;-76
2021/04/26 12:27:15;;;;;;;0.77;0.70;;;17.40;40.70;;;;;;4952784;29;20058;-76
2021/04/26 12:29:41;;;;;;;4.20;1.33;;;17.50;40.60;;;;;;4953345;28;20086;-76
2021/04/26 12:32:08;;;;;;;1.88;0.80;;;17.60;40.70;;;;;;4953892;28;20384;-76
2021/04/26 12:35:04;;;;;;;2.58;0.98;;;17.60;40.40;;;;;;4953633;28;20120;-76
2021/04/26 12:37:32;;;;;;;4.32;1.00;;;17.70;40.20;;;;;;4953961;28;20061;-75
2021/04/26 12:40:22;;;;;;;2.28;1.08;;;17.80;39.90;;;;;;4954366;28;20494;-76
2021/04/26 12:43:00;;;;;;;3.40;1.60;;;17.80;39.80;;;;;;4953452;28;20027;-76
2021/04/26 12:45:29;;;;;;;3.17;1.77;;;17.90;39.60;;;;;;4954183;29;20102;-76
2021/04/26 12:48:00;;;;;;;3.35;1.15;;;17.90;39.50;;;;;;4953544;28;20143;-75
2021/04/26 12:50:39;;;;;;;2.05;0.90;;;17.90;39.20;;;;;;4954075;28;20047;-75
2021/04/26 12:53:27;;;;;;;1.90;1.17;;;17.80;38.60;;;;;;4952774;29;20115;-75
2021/04/26 12:56:06;;;;;;;2.55;0.70;;;17.70;38.40;;;;;;4952365;28;20039;-75
2021/04/26 12:58:40;;;;;;;1.60;0.60;;;17.60;38.10;;;;;;4952832;28;20110;-75
2021/04/26 13:01:21;;;;;;;1.63;0.80;;;17.60;38.10;;;;;;4953767;29;20062;-75
2021/04/26 13:03:52;;;;;;;1.38;0.75;;;17.60;38.10;;;;;;4953213;28;20022;-75
2021/04/26 13:06:20;;;;;;;;;;;17.50;37.90;;;;;;4954224;29;20032;-75